sensor_id;sensor_type;location;lat;lon;timestamp;P1;durP1;ratioP1;P2;durP2;ratioP2
19343;SDS011;9808;52.402;16.678;2022-10-17T00:01:32;43.73;;;26.17;;
19343;SDS011;9808;52.402;16.678;2022-10-17T00:03:59;39.23;;;23.70;;
19343;SDS011;9808;52.402;16.678;2022-10-17T00:06:26;34.90;;;22.00;;
19343;SDS011;9808;52.402;16.678;2022-10-17T00:08:52;38.43;;;22.60;;
19343;SDS011;9808;52.402;16.678;2022-10-17T00:11:21;41.13;;;21.93;;
19343;SDS011;9808;52.402;16.678;2022-10-17T00:13:49;38.77;;;22.07;;
19343;SDS011;9808;52.402;16.678;2022-10-17T00:16:26;39.93;;;22.80;;
19343;SDS011;9808;52.402;16.678;2022-10-17T00:18:56;37.13;;;22.53;;
19343;SDS011;9808;52.402;16.678;2022-10-17T00:21:23;34.90;;;22.33;;
19343;SDS011;9808;52.402;16.678;2022-10-17T00:23:50;44.43;;;25.10;;
19343;SDS011;9808;52.402;16.678;2022-10-17T00:26:17;42.17;;;25.43;;
19343;SDS011;9808;52.402;16.678;2022-10-17T00:28:48;50.10;;;27.92;;
19343;SDS011;9808;52.402;16.678;2022-10-17T00:31:16;49.20;;;25.77;;
19343;SDS011;9808;52.402;16.678;2022-10-17T00:33:45;43.78;;;24.70;;
19343;SDS011;9808;52.402;16.678;2022-10-17T00:36:19;42.08;;;23.75;;
19343;SDS011;9808;52.402;16.678;2022-10-17T00:38:49;43.00;;;24.63;;
19343;SDS011;9808;52.402;16.678;2022-10-17T00:41:22;38.00;;;23.33;;
19343;SDS011;9808;52.402;16.678;2022-10-17T00:43:56;43.22;;;23.38;;
19343;SDS011;9808;52.402;16.678;2022-10-17T00:46:26;36.63;;;22.63;;
19343;SDS011;9808;52.402;16.678;2022-10-17T00:48:56;32.00;;;21.40;;
19343;SDS011;9808;52.402;16.678;2022-10-17T00:51:48;33.92;;;21.50;;
19343;SDS011;9808;52.402;16.678;2022-10-17T00:54:28;32.85;;;20.13;;
19343;SDS011;9808;52.402;16.678;2022-10-17T00:56:57;37.67;;;20.95;;
19343;SDS011;9808;52.402;16.678;2022-10-17T00:59:24;35.45;;;20.38;;
19343;SDS011;9808;52.402;16.678;2022-10-17T01:04:36;33.80;;;19.92;;
19343;SDS011;9808;52.402;16.678;2022-10-17T01:07:05;32.92;;;19.83;;
19343;SDS011;9808;52.402;16.678;2022-10-17T01:09:32;28.55;;;19.52;;
19343;SDS011;9808;52.402;16.678;2022-10-17T01:15:02;32.08;;;18.90;;
19343;SDS011;9808;52.402;16.678;2022-10-17T01:17:51;30.77;;;19.25;;
19343;SDS011;9808;52.402;16.678;2022-10-17T01:23:48;26.70;;;17.35;;
19343;SDS011;9808;52.402;16.678;2022-10-17T01:26:30;30.02;;;18.77;;
19343;SDS011;9808;52.402;16.678;2022-10-17T01:29:21;27.42;;;17.50;;
19343;SDS011;9808;52.402;16.678;2022-10-17T01:34:36;33.30;;;18.75;;
19343;SDS011;9808;52.402;16.678;2022-10-17T01:37:26;31.65;;;19.38;;
19343;SDS011;9808;52.402;16.678;2022-10-17T01:40:26;31.00;;;19.15;;
19343;SDS011;9808;52.402;16.678;2022-10-17T01:48:13;32.33;;;19.67;;
19343;SDS011;9808;52.402;16.678;2022-10-17T01:50:52;37.17;;;20.15;;
19343;SDS011;9808;52.402;16.678;2022-10-17T01:53:27;33.42;;;19.70;;
19343;SDS011;9808;52.402;16.678;2022-10-17T01:55:59;32.42;;;18.90;;
19343;SDS011;9808;52.402;16.678;2022-10-17T01:58:32;34.08;;;18.65;;
19343;SDS011;9808;52.402;16.678;2022-10-17T02:01:04;31.60;;;18.73;;
19343;SDS011;9808;52.402;16.678;2022-10-17T02:03:32;27.35;;;17.50;;
19343;SDS011;9808;52.402;16.678;2022-10-17T02:06:00;26.70;;;18.27;;
19343;SDS011;9808;52.402;16.678;2022-10-17T02:08:28;30.05;;;19.55;;
19343;SDS011;9808;52.402;16.678;2022-10-17T02:11:22;27.58;;;17.40;;
19343;SDS011;9808;52.402;16.678;2022-10-17T02:14:04;33.40;;;19.15;;
19343;SDS011;9808;52.402;16.678;2022-10-17T02:19:32;29.20;;;18.75;;
19343;SDS011;9808;52.402;16.678;2022-10-17T02:24:44;28.83;;;16.95;;
19343;SDS011;9808;52.402;16.678;2022-10-17T02:29:49;30.75;;;17.80;;
19343;SDS011;9808;52.402;16.678;2022-10-17T02:32:36;29.35;;;16.52;;
19343;SDS011;9808;52.402;16.678;2022-10-17T02:35:15;28.08;;;17.73;;
19343;SDS011;9808;52.402;16.678;2022-10-17T02:37:44;30.42;;;18.88;;
19343;SDS011;9808;52.402;16.678;2022-10-17T02:40:14;29.00;;;18.05;;
19343;SDS011;9808;52.402;16.678;2022-10-17T02:42:43;28.95;;;17.55;;
19343;SDS011;9808;52.402;16.678;2022-10-17T02:45:11;31.77;;;18.95;;
19343;SDS011;9808;52.402;16.678;2022-10-17T02:47:58;28.17;;;17.38;;
19343;SDS011;9808;52.402;16.678;2022-10-17T02:50:41;29.85;;;17.05;;
19343;SDS011;9808;52.402;16.678;2022-10-17T02:53:31;30.08;;;18.08;;
19343;SDS011;9808;52.402;16.678;2022-10-17T02:56:18;32.80;;;19.05;;
19343;SDS011;9808;52.402;16.678;2022-10-17T02:58:50;35.28;;;19.67;;
19343;SDS011;9808;52.402;16.678;2022-10-17T03:01:23;37.10;;;19.95;;
19343;SDS011;9808;52.402;16.678;2022-10-17T03:03:50;33.80;;;19.67;;
19343;SDS011;9808;52.402;16.678;2022-10-17T03:06:29;35.05;;;20.40;;
19343;SDS011;9808;52.402;16.678;2022-10-17T03:08:55;57.97;;;30.48;;
19343;SDS011;9808;52.402;16.678;2022-10-17T03:11:22;52.65;;;29.00;;
19343;SDS011;9808;52.402;16.678;2022-10-17T03:13:49;47.95;;;26.77;;
19343;SDS011;9808;52.402;16.678;2022-10-17T03:16:15;36.17;;;22.65;;
19343;SDS011;9808;52.402;16.678;2022-10-17T03:18:42;40.15;;;22.42;;
19343;SDS011;9808;52.402;16.678;2022-10-17T03:21:14;45.05;;;23.95;;
19343;SDS011;9808;52.402;16.678;2022-10-17T03:23:41;36.43;;;22.70;;
19343;SDS011;9808;52.402;16.678;2022-10-17T03:26:07;35.33;;;20.93;;
19343;SDS011;9808;52.402;16.678;2022-10-17T03:28:34;29.80;;;18.10;;
19343;SDS011;9808;52.402;16.678;2022-10-17T03:31:12;29.20;;;16.42;;
19343;SDS011;9808;52.402;16.678;2022-10-17T03:33:41;28.95;;;16.02;;
19343;SDS011;9808;52.402;16.678;2022-10-17T03:36:08;28.70;;;16.92;;
19343;SDS011;9808;52.402;16.678;2022-10-17T03:38:37;25.15;;;16.42;;
19343;SDS011;9808;52.402;16.678;2022-10-17T03:41:04;24.15;;;14.77;;
19343;SDS011;9808;52.402;16.678;2022-10-17T03:43:31;26.55;;;15.75;;
19343;SDS011;9808;52.402;16.678;2022-10-17T03:45:58;25.88;;;16.00;;
19343;SDS011;9808;52.402;16.678;2022-10-17T03:48:27;27.08;;;16.30;;
19343;SDS011;9808;52.402;16.678;2022-10-17T03:50:58;26.60;;;17.02;;
19343;SDS011;9808;52.402;16.678;2022-10-17T03:53:30;31.25;;;18.65;;
19343;SDS011;9808;52.402;16.678;2022-10-17T03:56:07;26.90;;;17.38;;
19343;SDS011;9808;52.402;16.678;2022-10-17T03:58:34;29.92;;;16.95;;
19343;SDS011;9808;52.402;16.678;2022-10-17T04:01:05;29.35;;;18.35;;
19343;SDS011;9808;52.402;16.678;2022-10-17T04:03:32;28.17;;;18.25;;
19343;SDS011;9808;52.402;16.678;2022-10-17T04:06:00;32.25;;;19.67;;
19343;SDS011;9808;52.402;16.678;2022-10-17T04:08:28;32.37;;;19.83;;
19343;SDS011;9808;52.402;16.678;2022-10-17T04:10:59;32.45;;;18.70;;
19343;SDS011;9808;52.402;16.678;2022-10-17T04:13:27;28.33;;;18.58;;
19343;SDS011;9808;52.402;16.678;2022-10-17T04:15:58;36.70;;;21.30;;
19343;SDS011;9808;52.402;16.678;2022-10-17T04:18:26;44.78;;;24.95;;
19343;SDS011;9808;52.402;16.678;2022-10-17T04:20:53;58.67;;;30.77;;
19343;SDS011;9808;52.402;16.678;2022-10-17T04:23:20;65.00;;;32.73;;
19343;SDS011;9808;52.402;16.678;2022-10-17T04:25:47;58.33;;;31.70;;
19343;SDS011;9808;52.402;16.678;2022-10-17T04:28:14;55.47;;;29.45;;
19343;SDS011;9808;52.402;16.678;2022-10-17T04:30:41;50.47;;;26.37;;
19343;SDS011;9808;52.402;16.678;2022-10-17T04:33:10;52.33;;;27.70;;
19343;SDS011;9808;52.402;16.678;2022-10-17T04:35:37;43.47;;;24.57;;
19343;SDS011;9808;52.402;16.678;2022-10-17T04:38:04;47.03;;;25.73;;
19343;SDS011;9808;52.402;16.678;2022-10-17T04:40:30;39.60;;;24.40;;
19343;SDS011;9808;52.402;16.678;2022-10-17T04:42:57;46.17;;;24.67;;
19343;SDS011;9808;52.402;16.678;2022-10-17T04:45:24;41.40;;;23.13;;
19343;SDS011;9808;52.402;16.678;2022-10-17T04:47:54;46.73;;;23.27;;
19343;SDS011;9808;52.402;16.678;2022-10-17T04:50:21;41.60;;;22.90;;
19343;SDS011;9808;52.402;16.678;2022-10-17T04:52:51;35.47;;;21.87;;
19343;SDS011;9808;52.402;16.678;2022-10-17T04:55:17;31.57;;;20.10;;
19343;SDS011;9808;52.402;16.678;2022-10-17T04:57:44;38.50;;;21.90;;
19343;SDS011;9808;52.402;16.678;2022-10-17T05:00:11;38.07;;;20.83;;
19343;SDS011;9808;52.402;16.678;2022-10-17T05:02:38;41.30;;;22.77;;
19343;SDS011;9808;52.402;16.678;2022-10-17T05:05:05;39.03;;;22.73;;
19343;SDS011;9808;52.402;16.678;2022-10-17T05:07:32;37.53;;;23.00;;
19343;SDS011;9808;52.402;16.678;2022-10-17T05:09:58;37.00;;;21.30;;
19343;SDS011;9808;52.402;16.678;2022-10-17T05:12:25;35.77;;;20.70;;
19343;SDS011;9808;52.402;16.678;2022-10-17T05:14:52;39.63;;;21.40;;
19343;SDS011;9808;52.402;16.678;2022-10-17T05:17:19;32.13;;;19.67;;
19343;SDS011;9808;52.402;16.678;2022-10-17T05:19:46;34.20;;;20.17;;
19343;SDS011;9808;52.402;16.678;2022-10-17T05:22:12;35.00;;;20.40;;
19343;SDS011;9808;52.402;16.678;2022-10-17T05:24:39;32.53;;;19.47;;
19343;SDS011;9808;52.402;16.678;2022-10-17T05:27:06;31.80;;;19.87;;
19343;SDS011;9808;52.402;16.678;2022-10-17T05:29:33;31.00;;;19.10;;
19343;SDS011;9808;52.402;16.678;2022-10-17T05:32:00;29.70;;;18.90;;
19343;SDS011;9808;52.402;16.678;2022-10-17T05:34:32;31.67;;;19.17;;
19343;SDS011;9808;52.402;16.678;2022-10-17T05:37:00;30.33;;;19.00;;
19343;SDS011;9808;52.402;16.678;2022-10-17T05:39:26;32.53;;;18.43;;
19343;SDS011;9808;52.402;16.678;2022-10-17T05:41:53;32.90;;;19.63;;
19343;SDS011;9808;52.402;16.678;2022-10-17T05:44:20;32.17;;;18.63;;
19343;SDS011;9808;52.402;16.678;2022-10-17T05:46:47;33.57;;;20.23;;
19343;SDS011;9808;52.402;16.678;2022-10-17T05:49:14;35.97;;;20.23;;
19343;SDS011;9808;52.402;16.678;2022-10-17T05:51:58;32.07;;;20.00;;
19343;SDS011;9808;52.402;16.678;2022-10-17T05:54:25;37.20;;;21.03;;
19343;SDS011;9808;52.402;16.678;2022-10-17T05:56:52;34.37;;;22.30;;
19343;SDS011;9808;52.402;16.678;2022-10-17T05:59:20;37.37;;;21.83;;
19343;SDS011;9808;52.402;16.678;2022-10-17T06:01:47;34.90;;;21.80;;
19343;SDS011;9808;52.402;16.678;2022-10-17T06:04:14;37.13;;;22.47;;
19343;SDS011;9808;52.402;16.678;2022-10-17T06:06:40;36.70;;;21.20;;
19343;SDS011;9808;52.402;16.678;2022-10-17T06:09:07;37.27;;;20.50;;
19343;SDS011;9808;52.402;16.678;2022-10-17T06:11:34;32.33;;;19.93;;
19343;SDS011;9808;52.402;16.678;2022-10-17T06:14:01;33.47;;;20.30;;
19343;SDS011;9808;52.402;16.678;2022-10-17T06:16:28;32.43;;;20.50;;
19343;SDS011;9808;52.402;16.678;2022-10-17T06:18:55;32.10;;;20.20;;
19343;SDS011;9808;52.402;16.678;2022-10-17T06:21:23;34.03;;;19.90;;
19343;SDS011;9808;52.402;16.678;2022-10-17T06:23:51;35.27;;;21.63;;
19343;SDS011;9808;52.402;16.678;2022-10-17T06:26:18;36.53;;;21.17;;
19343;SDS011;9808;52.402;16.678;2022-10-17T06:28:45;35.40;;;22.53;;
19343;SDS011;9808;52.402;16.678;2022-10-17T06:31:13;36.23;;;21.70;;
19343;SDS011;9808;52.402;16.678;2022-10-17T06:33:41;36.40;;;22.50;;
19343;SDS011;9808;52.402;16.678;2022-10-17T06:36:09;36.87;;;23.13;;
19343;SDS011;9808;52.402;16.678;2022-10-17T06:38:38;40.80;;;24.20;;
19343;SDS011;9808;52.402;16.678;2022-10-17T06:41:06;43.17;;;25.23;;
19343;SDS011;9808;52.402;16.678;2022-10-17T06:43:40;41.27;;;24.83;;
19343;SDS011;9808;52.402;16.678;2022-10-17T06:46:08;44.20;;;26.13;;
19343;SDS011;9808;52.402;16.678;2022-10-17T06:48:35;49.90;;;26.87;;
19343;SDS011;9808;52.402;16.678;2022-10-17T06:51:02;42.47;;;26.43;;
19343;SDS011;9808;52.402;16.678;2022-10-17T06:53:31;45.37;;;27.87;;
19343;SDS011;9808;52.402;16.678;2022-10-17T06:55:59;49.87;;;28.73;;
19343;SDS011;9808;52.402;16.678;2022-10-17T06:58:29;50.17;;;28.90;;
19343;SDS011;9808;52.402;16.678;2022-10-17T07:00:58;49.75;;;30.13;;
19343;SDS011;9808;52.402;16.678;2022-10-17T07:03:30;50.70;;;30.30;;
19343;SDS011;9808;52.402;16.678;2022-10-17T07:05:57;55.47;;;31.20;;
19343;SDS011;9808;52.402;16.678;2022-10-17T07:08:24;55.72;;;31.30;;
19343;SDS011;9808;52.402;16.678;2022-10-17T07:10:51;53.97;;;31.67;;
19343;SDS011;9808;52.402;16.678;2022-10-17T07:13:18;57.33;;;31.80;;
19343;SDS011;9808;52.402;16.678;2022-10-17T07:15:46;62.83;;;33.43;;
19343;SDS011;9808;52.402;16.678;2022-10-17T07:18:13;55.63;;;32.73;;
19343;SDS011;9808;52.402;16.678;2022-10-17T07:20:40;57.63;;;32.55;;
19343;SDS011;9808;52.402;16.678;2022-10-17T07:23:06;60.83;;;33.08;;
19343;SDS011;9808;52.402;16.678;2022-10-17T07:25:33;57.83;;;32.75;;
19343;SDS011;9808;52.402;16.678;2022-10-17T07:28:05;55.25;;;31.80;;
19343;SDS011;9808;52.402;16.678;2022-10-17T07:30:32;51.63;;;30.40;;
19343;SDS011;9808;52.402;16.678;2022-10-17T07:32:58;54.15;;;31.73;;
19343;SDS011;9808;52.402;16.678;2022-10-17T07:35:25;54.72;;;32.60;;
19343;SDS011;9808;52.402;16.678;2022-10-17T07:37:52;56.90;;;32.85;;
19343;SDS011;9808;52.402;16.678;2022-10-17T07:40:18;71.10;;;33.55;;
19343;SDS011;9808;52.402;16.678;2022-10-17T07:42:45;58.65;;;31.30;;
19343;SDS011;9808;52.402;16.678;2022-10-17T07:45:12;51.42;;;31.35;;
19343;SDS011;9808;52.402;16.678;2022-10-17T07:47:39;51.92;;;31.15;;
19343;SDS011;9808;52.402;16.678;2022-10-17T07:50:06;56.83;;;31.40;;
19343;SDS011;9808;52.402;16.678;2022-10-17T07:52:33;52.35;;;30.75;;
19343;SDS011;9808;52.402;16.678;2022-10-17T07:55:00;48.35;;;30.02;;
19343;SDS011;9808;52.402;16.678;2022-10-17T07:57:27;48.22;;;31.35;;
19343;SDS011;9808;52.402;16.678;2022-10-17T07:59:53;50.03;;;30.65;;
19343;SDS011;9808;52.402;16.678;2022-10-17T08:02:22;50.22;;;30.50;;
19343;SDS011;9808;52.402;16.678;2022-10-17T08:04:50;48.13;;;29.60;;
19343;SDS011;9808;52.402;16.678;2022-10-17T08:07:18;48.15;;;31.15;;
19343;SDS011;9808;52.402;16.678;2022-10-17T08:09:53;51.75;;;31.52;;
19343;SDS011;9808;52.402;16.678;2022-10-17T08:12:20;49.50;;;30.83;;
19343;SDS011;9808;52.402;16.678;2022-10-17T08:14:47;49.08;;;31.20;;
19343;SDS011;9808;52.402;16.678;2022-10-17T08:17:14;56.13;;;32.40;;
19343;SDS011;9808;52.402;16.678;2022-10-17T08:19:41;50.05;;;32.47;;
19343;SDS011;9808;52.402;16.678;2022-10-17T08:22:07;55.83;;;34.40;;
19343;SDS011;9808;52.402;16.678;2022-10-17T08:24:34;56.55;;;34.25;;
19343;SDS011;9808;52.402;16.678;2022-10-17T08:27:01;50.88;;;32.72;;
19343;SDS011;9808;52.402;16.678;2022-10-17T08:29:29;52.40;;;32.85;;
19343;SDS011;9808;52.402;16.678;2022-10-17T08:31:57;47.10;;;30.50;;
19343;SDS011;9808;52.402;16.678;2022-10-17T08:34:27;46.45;;;30.25;;
19343;SDS011;9808;52.402;16.678;2022-10-17T08:36:54;49.00;;;29.73;;
19343;SDS011;9808;52.402;16.678;2022-10-17T08:39:21;48.63;;;28.08;;
19343;SDS011;9808;52.402;16.678;2022-10-17T08:41:53;39.30;;;26.90;;
19343;SDS011;9808;52.402;16.678;2022-10-17T08:47:23;37.40;;;24.40;;
19343;SDS011;9808;52.402;16.678;2022-10-17T08:49:55;41.15;;;25.88;;
19343;SDS011;9808;52.402;16.678;2022-10-17T08:55:15;34.45;;;23.88;;
19343;SDS011;9808;52.402;16.678;2022-10-17T08:57:52;38.42;;;23.92;;
19343;SDS011;9808;52.402;16.678;2022-10-17T09:00:20;35.50;;;23.85;;
19343;SDS011;9808;52.402;16.678;2022-10-17T09:02:49;35.38;;;23.23;;
19343;SDS011;9808;52.402;16.678;2022-10-17T09:08:08;33.85;;;22.10;;
19343;SDS011;9808;52.402;16.678;2022-10-17T09:10:51;35.63;;;21.52;;
19343;SDS011;9808;52.402;16.678;2022-10-17T09:13:37;31.80;;;21.70;;
19343;SDS011;9808;52.402;16.678;2022-10-17T09:19:17;29.65;;;20.17;;
19343;SDS011;9808;52.402;16.678;2022-10-17T09:21:52;30.50;;;20.25;;
19343;SDS011;9808;52.402;16.678;2022-10-17T09:24:27;31.02;;;20.38;;
19343;SDS011;9808;52.402;16.678;2022-10-17T09:26:56;33.42;;;21.27;;
19343;SDS011;9808;52.402;16.678;2022-10-17T09:29:23;33.30;;;20.67;;
19343;SDS011;9808;52.402;16.678;2022-10-17T09:34:29;29.85;;;20.25;;
19343;SDS011;9808;52.402;16.678;2022-10-17T09:36:58;29.77;;;20.02;;
19343;SDS011;9808;52.402;16.678;2022-10-17T09:39:26;37.75;;;18.58;;
19343;SDS011;9808;52.402;16.678;2022-10-17T09:42:00;28.92;;;17.92;;
19343;SDS011;9808;52.402;16.678;2022-10-17T09:44:29;26.75;;;17.55;;
19343;SDS011;9808;52.402;16.678;2022-10-17T09:47:12;26.15;;;17.70;;
19343;SDS011;9808;52.402;16.678;2022-10-17T09:49:56;26.52;;;17.75;;
19343;SDS011;9808;52.402;16.678;2022-10-17T09:52:33;26.77;;;18.33;;
19343;SDS011;9808;52.402;16.678;2022-10-17T09:55:19;27.70;;;17.67;;
19343;SDS011;9808;52.402;16.678;2022-10-17T09:57:52;29.75;;;17.98;;
19343;SDS011;9808;52.402;16.678;2022-10-17T10:00:23;26.30;;;17.90;;
19343;SDS011;9808;52.402;16.678;2022-10-17T10:06:03;24.65;;;16.90;;
19343;SDS011;9808;52.402;16.678;2022-10-17T10:08:49;23.23;;;15.70;;
19343;SDS011;9808;52.402;16.678;2022-10-17T10:11:25;24.27;;;15.18;;
19343;SDS011;9808;52.402;16.678;2022-10-17T10:16:59;22.95;;;16.40;;
19343;SDS011;9808;52.402;16.678;2022-10-17T10:19:29;22.70;;;15.73;;
19343;SDS011;9808;52.402;16.678;2022-10-17T10:22:01;20.75;;;14.50;;
19343;SDS011;9808;52.402;16.678;2022-10-17T10:24:39;23.90;;;15.18;;
19343;SDS011;9808;52.402;16.678;2022-10-17T10:27:06;24.48;;;14.20;;
19343;SDS011;9808;52.402;16.678;2022-10-17T10:29:47;21.85;;;13.95;;
19343;SDS011;9808;52.402;16.678;2022-10-17T10:35:00;25.13;;;14.25;;
19343;SDS011;9808;52.402;16.678;2022-10-17T10:37:45;25.40;;;14.35;;
19343;SDS011;9808;52.402;16.678;2022-10-17T10:40:31;27.45;;;15.02;;
19343;SDS011;9808;52.402;16.678;2022-10-17T10:43:05;20.92;;;14.05;;
19343;SDS011;9808;52.402;16.678;2022-10-17T10:48:21;30.50;;;14.02;;
19343;SDS011;9808;52.402;16.678;2022-10-17T10:51:07;26.05;;;13.73;;
19343;SDS011;9808;52.402;16.678;2022-10-17T10:53:42;25.95;;;13.07;;
19343;SDS011;9808;52.402;16.678;2022-10-17T10:56:16;20.17;;;13.75;;
19343;SDS011;9808;52.402;16.678;2022-10-17T11:06:54;21.10;;;12.60;;
19343;SDS011;9808;52.402;16.678;2022-10-17T11:09:41;19.92;;;12.77;;
19343;SDS011;9808;52.402;16.678;2022-10-17T11:12:18;16.75;;;12.35;;
19343;SDS011;9808;52.402;16.678;2022-10-17T11:17:53;20.58;;;11.55;;
19343;SDS011;9808;52.402;16.678;2022-10-17T11:23:17;16.13;;;12.02;;
19343;SDS011;9808;52.402;16.678;2022-10-17T11:25:50;20.25;;;12.48;;
19343;SDS011;9808;52.402;16.678;2022-10-17T11:28:19;23.65;;;13.25;;
19343;SDS011;9808;52.402;16.678;2022-10-17T11:31:08;21.20;;;12.98;;
19343;SDS011;9808;52.402;16.678;2022-10-17T11:33:42;20.25;;;12.07;;
19343;SDS011;9808;52.402;16.678;2022-10-17T11:36:23;19.45;;;12.52;;
19343;SDS011;9808;52.402;16.678;2022-10-17T11:38:54;16.73;;;11.85;;
19343;SDS011;9808;52.402;16.678;2022-10-17T11:44:17;20.23;;;11.60;;
19343;SDS011;9808;52.402;16.678;2022-10-17T11:49:59;18.70;;;11.63;;
19343;SDS011;9808;52.402;16.678;2022-10-17T11:53:21;19.10;;;11.18;;
19343;SDS011;9808;52.402;16.678;2022-10-17T11:55:51;16.75;;;11.00;;
19343;SDS011;9808;52.402;16.678;2022-10-17T12:01:16;15.10;;;10.40;;
19343;SDS011;9808;52.402;16.678;2022-10-17T12:09:45;14.65;;;10.35;;
19343;SDS011;9808;52.402;16.678;2022-10-17T12:12:31;15.45;;;9.85;;
19343;SDS011;9808;52.402;16.678;2022-10-17T12:17:43;15.07;;;9.55;;
19343;SDS011;9808;52.402;16.678;2022-10-17T12:25:47;13.52;;;9.73;;
19343;SDS011;9808;52.402;16.678;2022-10-17T12:28:33;15.95;;;9.63;;
19343;SDS011;9808;52.402;16.678;2022-10-17T12:31:13;15.40;;;9.68;;
19343;SDS011;9808;52.402;16.678;2022-10-17T12:34:02;16.90;;;10.00;;
19343;SDS011;9808;52.402;16.678;2022-10-17T12:49:40;20.67;;;10.57;;
19343;SDS011;9808;52.402;16.678;2022-10-17T12:54:51;15.48;;;10.30;;
19343;SDS011;9808;52.402;16.678;2022-10-17T13:00:27;17.52;;;10.80;;
19343;SDS011;9808;52.402;16.678;2022-10-17T13:03:02;15.18;;;10.30;;
19343;SDS011;9808;52.402;16.678;2022-10-17T13:05:32;17.95;;;10.05;;
19343;SDS011;9808;52.402;16.678;2022-10-17T13:08:02;14.25;;;10.02;;
19343;SDS011;9808;52.402;16.678;2022-10-17T13:10:32;14.20;;;10.15;;
19343;SDS011;9808;52.402;16.678;2022-10-17T13:15:32;14.43;;;10.25;;
19343;SDS011;9808;52.402;16.678;2022-10-17T13:18:00;16.10;;;10.50;;
19343;SDS011;9808;52.402;16.678;2022-10-17T13:20:28;20.15;;;9.32;;
19343;SDS011;9808;52.402;16.678;2022-10-17T13:22:57;15.40;;;9.80;;
19343;SDS011;9808;52.402;16.678;2022-10-17T13:25:25;14.88;;;8.98;;
19343;SDS011;9808;52.402;16.678;2022-10-17T13:28:02;14.10;;;9.20;;
19343;SDS011;9808;52.402;16.678;2022-10-17T13:30:35;15.15;;;8.82;;
19343;SDS011;9808;52.402;16.678;2022-10-17T13:33:02;11.27;;;8.50;;
19343;SDS011;9808;52.402;16.678;2022-10-17T13:35:41;13.98;;;8.38;;
19343;SDS011;9808;52.402;16.678;2022-10-17T13:38:26;16.33;;;8.88;;
19343;SDS011;9808;52.402;16.678;2022-10-17T13:40:55;15.48;;;9.05;;
19343;SDS011;9808;52.402;16.678;2022-10-17T13:43:36;17.58;;;9.50;;
19343;SDS011;9808;52.402;16.678;2022-10-17T13:46:04;16.48;;;9.25;;
19343;SDS011;9808;52.402;16.678;2022-10-17T13:48:51;16.60;;;9.48;;
19343;SDS011;9808;52.402;16.678;2022-10-17T13:51:18;22.98;;;9.40;;
19343;SDS011;9808;52.402;16.678;2022-10-17T13:53:45;13.23;;;8.93;;
19343;SDS011;9808;52.402;16.678;2022-10-17T13:56:16;15.02;;;9.52;;
19343;SDS011;9808;52.402;16.678;2022-10-17T13:59:01;18.45;;;9.35;;
19343;SDS011;9808;52.402;16.678;2022-10-17T14:01:43;17.70;;;9.40;;
19343;SDS011;9808;52.402;16.678;2022-10-17T14:04:10;19.33;;;9.27;;
19343;SDS011;9808;52.402;16.678;2022-10-17T14:06:45;14.93;;;9.80;;
19343;SDS011;9808;52.402;16.678;2022-10-17T14:14:38;19.85;;;9.98;;
19343;SDS011;9808;52.402;16.678;2022-10-17T14:17:27;17.08;;;10.63;;
19343;SDS011;9808;52.402;16.678;2022-10-17T14:19:57;19.42;;;10.63;;
19343;SDS011;9808;52.402;16.678;2022-10-17T14:22:50;21.15;;;10.35;;
19343;SDS011;9808;52.402;16.678;2022-10-17T14:25:38;20.17;;;10.75;;
19343;SDS011;9808;52.402;16.678;2022-10-17T14:30:36;16.95;;;10.75;;
19343;SDS011;9808;52.402;16.678;2022-10-17T14:33:27;25.67;;;10.90;;
19343;SDS011;9808;52.402;16.678;2022-10-17T14:35:56;14.85;;;9.98;;
19343;SDS011;9808;52.402;16.678;2022-10-17T14:38:25;21.13;;;10.90;;
19343;SDS011;9808;52.402;16.678;2022-10-17T14:44:18;23.83;;;11.35;;
19343;SDS011;9808;52.402;16.678;2022-10-17T14:46:58;22.73;;;10.93;;
19343;SDS011;9808;52.402;16.678;2022-10-17T14:49:39;20.33;;;11.05;;
19343;SDS011;9808;52.402;16.678;2022-10-17T14:54:45;18.08;;;12.60;;
19343;SDS011;9808;52.402;16.678;2022-10-17T14:57:24;21.65;;;12.20;;
19343;SDS011;9808;52.402;16.678;2022-10-17T15:00:06;18.85;;;11.45;;
19343;SDS011;9808;52.402;16.678;2022-10-17T15:02:33;23.98;;;12.05;;
19343;SDS011;9808;52.402;16.678;2022-10-17T15:05:01;17.63;;;12.15;;
19343;SDS011;9808;52.402;16.678;2022-10-17T15:07:28;17.02;;;11.90;;
19343;SDS011;9808;52.402;16.678;2022-10-17T15:09:55;16.67;;;11.55;;
19343;SDS011;9808;52.402;16.678;2022-10-17T15:12:23;24.80;;;12.63;;
19343;SDS011;9808;52.402;16.678;2022-10-17T15:14:50;22.92;;;13.50;;
19343;SDS011;9808;52.402;16.678;2022-10-17T15:17:19;28.33;;;13.43;;
19343;SDS011;9808;52.402;16.678;2022-10-17T15:22:30;19.48;;;13.00;;
19343;SDS011;9808;52.402;16.678;2022-10-17T15:24:57;17.95;;;13.05;;
19343;SDS011;9808;52.402;16.678;2022-10-17T15:27:24;21.08;;;13.75;;
19343;SDS011;9808;52.402;16.678;2022-10-17T15:29:51;25.25;;;13.52;;
19343;SDS011;9808;52.402;16.678;2022-10-17T15:32:18;20.42;;;12.88;;
19343;SDS011;9808;52.402;16.678;2022-10-17T15:34:45;18.35;;;13.18;;
19343;SDS011;9808;52.402;16.678;2022-10-17T15:37:22;23.90;;;12.50;;
19343;SDS011;9808;52.402;16.678;2022-10-17T15:39:52;18.42;;;12.75;;
19343;SDS011;9808;52.402;16.678;2022-10-17T15:42:21;19.23;;;12.93;;
19343;SDS011;9808;52.402;16.678;2022-10-17T15:44:51;19.23;;;13.30;;
19343;SDS011;9808;52.402;16.678;2022-10-17T15:47:28;22.70;;;12.98;;
19343;SDS011;9808;52.402;16.678;2022-10-17T15:49:59;19.55;;;13.25;;
19343;SDS011;9808;52.402;16.678;2022-10-17T15:52:26;24.17;;;13.40;;
19343;SDS011;9808;52.402;16.678;2022-10-17T15:54:53;21.58;;;12.27;;
19343;SDS011;9808;52.402;16.678;2022-10-17T15:57:25;19.90;;;12.93;;
19343;SDS011;9808;52.402;16.678;2022-10-17T15:59:54;19.92;;;12.95;;
19343;SDS011;9808;52.402;16.678;2022-10-17T16:02:22;25.25;;;14.68;;
19343;SDS011;9808;52.402;16.678;2022-10-17T16:04:50;20.75;;;13.13;;
19343;SDS011;9808;52.402;16.678;2022-10-17T16:07:18;21.63;;;13.27;;
19343;SDS011;9808;52.402;16.678;2022-10-17T16:09:45;26.27;;;14.38;;
19343;SDS011;9808;52.402;16.678;2022-10-17T16:12:16;29.23;;;14.18;;
19343;SDS011;9808;52.402;16.678;2022-10-17T16:14:48;25.08;;;14.48;;
19343;SDS011;9808;52.402;16.678;2022-10-17T16:17:14;22.02;;;14.30;;
19343;SDS011;9808;52.402;16.678;2022-10-17T16:19:42;27.65;;;13.98;;
19343;SDS011;9808;52.402;16.678;2022-10-17T16:22:15;30.60;;;15.25;;
19343;SDS011;9808;52.402;16.678;2022-10-17T16:24:46;23.48;;;14.82;;
19343;SDS011;9808;52.402;16.678;2022-10-17T16:27:13;31.90;;;16.15;;
19343;SDS011;9808;52.402;16.678;2022-10-17T16:29:39;28.10;;;15.48;;
19343;SDS011;9808;52.402;16.678;2022-10-17T16:32:07;27.58;;;17.33;;
19343;SDS011;9808;52.402;16.678;2022-10-17T16:34:34;34.97;;;18.40;;
19343;SDS011;9808;52.402;16.678;2022-10-17T16:37:01;31.40;;;17.88;;
19343;SDS011;9808;52.402;16.678;2022-10-17T16:39:27;33.53;;;18.02;;
19343;SDS011;9808;52.402;16.678;2022-10-17T16:41:54;31.33;;;18.27;;
19343;SDS011;9808;52.402;16.678;2022-10-17T16:44:24;34.75;;;17.75;;
19343;SDS011;9808;52.402;16.678;2022-10-17T16:46:53;30.92;;;18.48;;
19343;SDS011;9808;52.402;16.678;2022-10-17T16:49:20;30.25;;;18.33;;
19343;SDS011;9808;52.402;16.678;2022-10-17T16:51:47;28.05;;;17.23;;
19343;SDS011;9808;52.402;16.678;2022-10-17T16:54:14;32.03;;;16.73;;